Accueil
METAR-TAF:

METAR-TAF

Aéroports :

Djeddah, Arabie saoudite

Aéroport international Roi-Abdelaziz

latitude: 21-42N, longitude: 039-11E, altitude: 15 m

Observation

Le bulletin a été fait il y a 36 minutes, à 00:00 UTC
Vent 4 kt de nord/nord-est
Température 23°C
Humidité 69%
Pression 1013 hPa
Visibilité 10 km ou plus
pas de nuages en-dessous de 1500 mètres et pas de cumulonimbus.

METAR: OEJN 140000Z 03004KT CAVOK 23/17 Q1013 NOSIG

Heure: 03:36 (00:36 UTC)

Prévision

Le bulletin a été fait il y a 1 heure et 36 minutes, à 23:00 UTC
Prévision valable du 14 à 00 UTC au 15 à 06 UTC
Vent 5 kt de est
Visibilité 10 km ou plus
pas de nuages en-dessous de 1500 mètres et pas de cumulonimbus.
Evoluant progressivement
du 14 à 06 UTC au 04 à 09 UTC
Vent 10 kt de nord-ouest

TAF: OEJN 132300Z 1400/1506 08005KT CAVOK BECMG 1406/0409 31010KT

Observations et prévisions météorologiques de plus de 4000 aéroports (messages METAR et TAF).

Les stations disponibles sont représentées par des disques jaunes et rouges sur la carte.

Passer la souris dessus pour voir le nom de la station.

Cliquer dessus pour voir les observations et prévisions météorologiques.

Pour changer de carte: cliquez sur les boutons verts avec une croix noire pour zoomer, sur le bouton vert avec un tiret pour effectuer un zoom arrière, ou sur les flèches vertes pour les cartes adjacentes.


METAR-TAF: